Terminal Aerodrome Forecast
Issued by NWS Quad Cities IA IL

Home | Current Version | Previous Version | Text Only | Print | Product List | Glossary On
Versions: 1 2 3 4 5 6 7 8 9 10 11 12
000
FTUS43 KDVN 280520
TAFMLI
TAF
KMLI 280520Z 2806/2906 11003KT P6SM BKN150
     FM281500 15008KT P6SM OVC100
     FM282200 15010KT 6SM -RA BR BKN040
     FM290200 15008KT 3SM -RA BR OVC025=

USA.gov is the U.S. government's official web portal to all federal, state and local government web resources and services.